Wetterdaten: aktuell Donnerstag, 27.02.2020 14:05
Datum Zeit Temp. A. Feuchte A. Luftdruck Regen Wind Richtung Richtung Sonnenschein ET UV Solar Windben Empfang
27.02.2020 14:05 4,2 C 74 % 999,0 hPa 0,0 l/m 6,4 km/h S-SW 202 0 min 0,000 mm 0,0 UV-I 93 W/m 16,1 km/h 100 %
27.02.2020 14:00 4,6 C 72 % 999,2 hPa 0,0 l/m 11,3 km/h S 180 0 min 0,076 mm 0,0 UV-I 111 W/m 24,1 km/h 100 %
27.02.2020 13:55 4,7 C 70 % 999,3 hPa 0,0 l/m 9,7 km/h S 180 0 min 0,000 mm 0,0 UV-I 141 W/m 16,1 km/h 100 %
27.02.2020 13:50 4,8 C 71 % 999,5 hPa 0,0 l/m 9,7 km/h S 180 0 min 0,000 mm 0,5 UV-I 149 W/m 16,1 km/h 100 %
27.02.2020 13:45 4,8 C 71 % 999,7 hPa 0,0 l/m 6,4 km/h S-SO 157 0 min 0,000 mm 0,5 UV-I 146 W/m 14,5 km/h 100 %
27.02.2020 13:40 4,8 C 71 % 999,9 hPa 0,0 l/m 9,7 km/h S 180 0 min 0,000 mm 0,5 UV-I 155 W/m 14,5 km/h 100 %
27.02.2020 13:35 4,8 C 72 % 1000,1 hPa 0,0 l/m 6,4 km/h S 180 0 min 0,000 mm 0,5 UV-I 160 W/m 16,1 km/h 100 %
27.02.2020 13:30 4,8 C 72 % 1000,3 hPa 0,0 l/m 8,0 km/h S-SO 157 0 min 0,000 mm 0,6 UV-I 179 W/m 19,3 km/h 100 %
27.02.2020 13:25 4,8 C 71 % 1000,4 hPa 0,0 l/m 11,3 km/h S 180 0 min 0,000 mm 0,7 UV-I 197 W/m 20,9 km/h 99 %
27.02.2020 13:20 4,8 C 72 % 1000,5 hPa 0,0 l/m 9,7 km/h S-SO 157 0 min 0,000 mm 0,7 UV-I 195 W/m 17,7 km/h 100 %
27.02.2020 13:15 4,8 C 72 % 1000,7 hPa 0,0 l/m 9,7 km/h S 180 0 min 0,000 mm 0,7 UV-I 202 W/m 16,1 km/h 100 %
27.02.2020 13:10 4,8 C 72 % 1000,8 hPa 0,0 l/m 9,7 km/h S 180 0 min 0,000 mm 0,8 UV-I 214 W/m 16,1 km/h 100 %
27.02.2020 13:05 4,8 C 72 % 1001,0 hPa 0,0 l/m 9,7 km/h S 180 0 min 0,000 mm 0,8 UV-I 220 W/m 17,7 km/h 100 %
27.02.2020 13:00 4,7 C 72 % 1001,2 hPa 0,0 l/m 11,3 km/h S 180 0 min 0,102 mm 0,7 UV-I 193 W/m 17,7 km/h 100 %
27.02.2020 12:55 4,7 C 72 % 1001,5 hPa 0,0 l/m 9,7 km/h S 180 0 min 0,000 mm 0,7 UV-I 179 W/m 17,7 km/h 100 %
27.02.2020 12:50 4,6 C 72 % 1001,7 hPa 0,0 l/m 11,3 km/h S 180 0 min 0,000 mm 0,6 UV-I 167 W/m 19,3 km/h 100 %
27.02.2020 12:45 4,7 C 73 % 1001,8 hPa 0,0 l/m 3,2 km/h S 180 0 min 0,000 mm 0,6 UV-I 167 W/m 11,3 km/h 100 %
27.02.2020 12:40 4,7 C 73 % 1002,0 hPa 0,0 l/m 6,4 km/h S-SW 202 0 min 0,000 mm 0,7 UV-I 200 W/m 11,3 km/h 100 %
27.02.2020 12:35 4,6 C 74 % 1002,2 hPa 0,0 l/m 6,4 km/h S 180 0 min 0,000 mm 0,8 UV-I 211 W/m 12,9 km/h 100 %
27.02.2020 12:30 4,5 C 73 % 1002,4 hPa 0,0 l/m 9,7 km/h S 180 0 min 0,000 mm 0,7 UV-I 197 W/m 16,1 km/h 100 %
27.02.2020 12:25 4,6 C 74 % 1002,5 hPa 0,0 l/m 9,7 km/h S 180 0 min 0,000 mm 0,9 UV-I 225 W/m 17,7 km/h 100 %
27.02.2020 12:20 4,6 C 75 % 1002,6 hPa 0,0 l/m 3,2 km/h S 180 0 min 0,000 mm 0,9 UV-I 225 W/m 14,5 km/h 96 %
27.02.2020 12:15 4,4 C 76 % 1002,8 hPa 0,0 l/m 4,8 km/h SW 225 0 min 0,000 mm 0,9 UV-I 248 W/m 12,9 km/h 100 %
27.02.2020 12:10 4,3 C 75 % 1003,0 hPa 0,0 l/m 9,7 km/h S 180 0 min 0,000 mm 0,9 UV-I 246 W/m 16,1 km/h 100 %
27.02.2020 12:05 4,3 C 75 % 1003,2 hPa 0,0 l/m 9,7 km/h S 180 0 min 0,000 mm 0,8 UV-I 221 W/m 17,7 km/h 100 %
27.02.2020 12:00 4,2 C 75 % 1003,4 hPa 0,0 l/m 11,3 km/h S 180 0 min 0,102 mm 0,8 UV-I 206 W/m 20,9 km/h 100 %
27.02.2020 11:55 4,2 C 76 % 1003,5 hPa 0,0 l/m 11,3 km/h S 180 0 min 0,000 mm 0,8 UV-I 221 W/m 17,7 km/h 100 %
27.02.2020 11:50 4,1 C 77 % 1003,7 hPa 0,0 l/m 8,0 km/h S-SW 202 0 min 0,000 mm 0,7 UV-I 192 W/m 12,9 km/h 100 %
27.02.2020 11:45 4,1 C 77 % 1003,8 hPa 0,0 l/m 9,7 km/h S 180 0 min 0,000 mm 0,7 UV-I 186 W/m 14,5 km/h 99 %
27.02.2020 11:40 4,2 C 78 % 1003,9 hPa 0,0 l/m 8,0 km/h S-SW 202 0 min 0,000 mm 0,6 UV-I 186 W/m 19,3 km/h 100 %
27.02.2020 11:35 4,2 C 79 % 1004,0 hPa 0,0 l/m 6,4 km/h S 180 0 min 0,000 mm 0,8 UV-I 234 W/m 12,9 km/h 100 %
27.02.2020 11:30 4,1 C 79 % 1004,2 hPa 0,0 l/m 9,7 km/h S 180 0 min 0,000 mm 0,9 UV-I 260 W/m 16,1 km/h 100 %
27.02.2020 11:25 4,0 C 80 % 1004,3 hPa 0,0 l/m 4,8 km/h S 180 5 min 0,000 mm 0,9 UV-I 285 W/m 12,9 km/h 100 %
27.02.2020 11:20 3,8 C 81 % 1004,3 hPa 0,0 l/m 4,8 km/h S 180 5 min 0,000 mm 0,9 UV-I 281 W/m 12,9 km/h 96 %
27.02.2020 11:15 3,7 C 81 % 1004,6 hPa 0,0 l/m 4,8 km/h S-SW 202 0 min 0,000 mm 0,7 UV-I 225 W/m 11,3 km/h 100 %
27.02.2020 11:10 3,6 C 81 % 1004,7 hPa 0,0 l/m 8,0 km/h S-SW 202 0 min 0,000 mm 0,6 UV-I 185 W/m 16,1 km/h 100 %
27.02.2020 11:05 3,4 C 82 % 1004,9 hPa 0,0 l/m 4,8 km/h S-SW 202 0 min 0,000 mm 0,5 UV-I 162 W/m 12,9 km/h 99 %
27.02.2020 11:00 3,3 C 82 % 1004,9 hPa 0,0 l/m 8,0 km/h S-SW 202 0 min 0,051 mm 0,6 UV-I 202 W/m 14,5 km/h 100 %
27.02.2020 10:55 3,2 C 83 % 1005,1 hPa 0,0 l/m 8,0 km/h S 180 0 min 0,000 mm 0,6 UV-I 214 W/m 17,7 km/h 100 %
27.02.2020 10:50 3,1 C 82 % 1005,2 hPa 0,0 l/m 8,0 km/h S 180 0 min 0,000 mm 0,5 UV-I 174 W/m 14,5 km/h 100 %
27.02.2020 10:45 3,3 C 82 % 1005,4 hPa 0,0 l/m 9,7 km/h S 180 0 min 0,000 mm 0,0 UV-I 102 W/m 14,5 km/h 100 %
27.02.2020 10:40 3,4 C 80 % 1005,5 hPa 0,0 l/m 6,4 km/h S 180 0 min 0,000 mm 0,0 UV-I 95 W/m 14,5 km/h 100 %
27.02.2020 10:35 3,4 C 80 % 1005,5 hPa 0,0 l/m 9,7 km/h S-SW 202 0 min 0,000 mm 0,0 UV-I 100 W/m 20,9 km/h 100 %
27.02.2020 10:30 3,5 C 80 % 1005,5 hPa 0,0 l/m 9,7 km/h S-SW 202 0 min 0,000 mm 0,0 UV-I 118 W/m 19,3 km/h 100 %
27.02.2020 10:25 3,6 C 79 % 1005,6 hPa 0,0 l/m 9,7 km/h S-SW 202 0 min 0,000 mm 0,0 UV-I 135 W/m 17,7 km/h 100 %
27.02.2020 10:20 3,7 C 79 % 1005,7 hPa 0,0 l/m 6,4 km/h SW 225 0 min 0,000 mm 0,0 UV-I 100 W/m 16,1 km/h 95 %
27.02.2020 10:15 3,7 C 79 % 1005,7 hPa 0,0 l/m 8,0 km/h S-SW 202 0 min 0,000 mm 0,0 UV-I 104 W/m 14,5 km/h 100 %
27.02.2020 10:10 3,7 C 79 % 1005,8 hPa 0,0 l/m 4,8 km/h S-SW 202 0 min 0,000 mm 0,0 UV-I 83 W/m 11,3 km/h 100 %
27.02.2020 10:05 3,8 C 79 % 1005,9 hPa 0,0 l/m 4,8 km/h S-SW 202 0 min 0,051 mm 0,0 UV-I 127 W/m 12,9 km/h 99 %
27.02.2020 10:00 3,8 C 78 % 1006,0 hPa 0,0 l/m 3,2 km/h S-SW 202 0 min 0,000 mm 0,0 UV-I 128 W/m 11,3 km/h 100 %
27.02.2020 09:55 3,7 C 80 % 1006,2 hPa 0,0 l/m 4,8 km/h SW 225 0 min 0,000 mm 0,0 UV-I 146 W/m 11,3 km/h 100 %
27.02.2020 09:50 3,7 C 79 % 1006,2 hPa 0,0 l/m 6,4 km/h S-SW 202 0 min 0,000 mm 0,0 UV-I 135 W/m 14,5 km/h 100 %
27.02.2020 09:45 3,7 C 80 % 1006,4 hPa 0,0 l/m 3,2 km/h S-SW 202 0 min 0,000 mm 0,0 UV-I 153 W/m 11,3 km/h 100 %
27.02.2020 09:40 3,6 C 80 % 1006,3 hPa 0,0 l/m 6,4 km/h S-SW 202 5 min 0,000 mm 0,0 UV-I 221 W/m 16,1 km/h 100 %
27.02.2020 09:35 3,4 C 80 % 1006,4 hPa 0,0 l/m 6,4 km/h S-SW 202 5 min 0,000 mm 0,0 UV-I 204 W/m 12,9 km/h 100 %
27.02.2020 09:30 3,3 C 80 % 1006,5 hPa 0,0 l/m 4,8 km/h S-SW 202 0 min 0,000 mm 0,0 UV-I 149 W/m 11,3 km/h 100 %
27.02.2020 09:25 3,2 C 80 % 1006,6 hPa 0,0 l/m 4,8 km/h S-SW 202 0 min 0,000 mm 0,0 UV-I 111 W/m 11,3 km/h 97 %
27.02.2020 09:20 3,2 C 80 % 1006,6 hPa 0,0 l/m 9,7 km/h S 180 0 min 0,000 mm 0,0 UV-I 116 W/m 17,7 km/h 100 %
27.02.2020 09:15 3,2 C 80 % 1006,7 hPa 0,0 l/m 8,0 km/h S-SW 202 0 min 0,000 mm 0,0 UV-I 107 W/m 14,5 km/h 78 %
27.02.2020 09:10 3,1 C 80 % 1006,7 hPa 0,0 l/m 6,4 km/h S-SW 202 0 min 0,000 mm 0,0 UV-I 72 W/m 16,1 km/h 100 %
27.02.2020 09:05 3,1 C 80 % 1006,8 hPa 0,0 l/m 4,8 km/h S-SW 202 0 min 0,025 mm 0,0 UV-I 69 W/m 11,3 km/h 100 %
27.02.2020 09:00 2,9 C 80 % 1006,9 hPa 0,0 l/m 4,8 km/h S-SW 202 0 min 0,000 mm 0,0 UV-I 58 W/m 17,7 km/h 100 %
27.02.2020 08:55 2,9 C 81 % 1007,0 hPa 0,0 l/m 4,8 km/h S-SW 202 0 min 0,000 mm 0,0 UV-I 44 W/m 11,3 km/h 100 %
27.02.2020 08:50 2,9 C 81 % 1007,0 hPa 0,0 l/m 3,2 km/h S-SW 202 0 min 0,000 mm 0,0 UV-I 35 W/m 12,9 km/h 100 %
27.02.2020 08:45 2,9 C 81 % 1007,1 hPa 0,0 l/m 4,8 km/h S-SW 202 0 min 0,000 mm 0,0 UV-I 39 W/m 11,3 km/h 100 %
27.02.2020 08:40 2,8 C 81 % 1007,0 hPa 0,0 l/m 6,4 km/h S-SW 202 0 min 0,000 mm 0,0 UV-I 37 W/m 12,9 km/h 100 %
27.02.2020 08:35 2,7 C 82 % 1007,0 hPa 0,0 l/m 4,8 km/h S-SW 202 0 min 0,000 mm 0,0 UV-I 33 W/m 16,1 km/h 100 %
27.02.2020 08:30 2,7 C 82 % 1007,0 hPa 0,0 l/m 1,6 km/h S-SW 202 0 min 0,000 mm 0,0 UV-I 32 W/m 11,3 km/h 100 %
27.02.2020 08:25 2,6 C 82 % 1007,0 hPa 0,0 l/m 1,6 km/h S-SW 202 0 min 0,000 mm 0,0 UV-I 26 W/m 8,0 km/h 100 %
27.02.2020 08:20 2,6 C 82 % 1007,1 hPa 0,0 l/m 1,6 km/h S-SW 202 0 min 0,000 mm 0,0 UV-I 32 W/m 6,4 km/h 100 %
27.02.2020 08:15 2,6 C 82 % 1007,1 hPa 0,0 l/m 1,6 km/h S-SW 202 0 min 0,000 mm 0,0 UV-I 32 W/m 8,0 km/h 96 %
27.02.2020 08:10 2,4 C 83 % 1007,1 hPa 0,0 l/m 3,2 km/h S-SW 202 0 min 0,000 mm 0,0 UV-I 28 W/m 9,7 km/h 100 %
27.02.2020 08:05 2,4 C 82 % 1007,2 hPa 0,0 l/m 1,6 km/h S-SW 202 0 min 0,000 mm 0,0 UV-I 21 W/m 8,0 km/h 100 %
27.02.2020 08:00 2,4 C 83 % 1007,2 hPa 0,0 l/m 3,2 km/h S-SW 202 0 min 0,000 mm 0,0 UV-I 18 W/m 9,7 km/h 99 %
27.02.2020 07:55 2,4 C 83 % 1007,2 hPa 0,0 l/m 3,2 km/h S-SW 202 0 min 0,000 mm 0,0 UV-I 18 W/m 8,0 km/h 100 %
27.02.2020 07:50 2,4 C 82 % 1007,3 hPa 0,0 l/m 0,0 km/h SW 225 0 min 0,000 mm 0,0 UV-I 11 W/m 4,8 km/h 100 %
27.02.2020 07:45 2,6 C 82 % 1007,2 hPa 0,0 l/m 1,6 km/h S 180 0 min 0,000 mm 0,0 UV-I 9 W/m 9,7 km/h 100 %
27.02.2020 07:40 2,6 C 82 % 1007,2 hPa 0,0 l/m 4,8 km/h SW 225 0 min 0,000 mm 0,0 UV-I 7 W/m 11,3 km/h 100 %
27.02.2020 07:35 2,5 C 82 % 1007,2 hPa 0,0 l/m 4,8 km/h SW 225 0 min 0,000 mm 0,0 UV-I 5 W/m 11,3 km/h 100 %
27.02.2020 07:30 2,4 C 82 % 1007,2 hPa 0,0 l/m 6,4 km/h SW 225 0 min 0,000 mm 0,0 UV-I 5 W/m 12,9 km/h 100 %
27.02.2020 07:25 2,4 C 82 % 1007,3 hPa 0,0 l/m 4,8 km/h S-SW 202 0 min 0,000 mm 0,0 UV-I 0 W/m 14,5 km/h 100 %
27.02.2020 07:20 2,3 C 83 % 1007,2 hPa 0,0 l/m 4,8 km/h S-SW 202 0 min 0,000 mm 0,0 UV-I 0 W/m 9,7 km/h 100 %
27.02.2020 07:15 2,3 C 83 % 1007,3 hPa 0,0 l/m 3,2 km/h S-SW 202 0 min 0,000 mm 0,0 UV-I 0 W/m 8,0 km/h 96 %
27.02.2020 07:10 2,4 C 83 % 1007,3 hPa 0,0 l/m 1,6 km/h S-SW 202 0 min 0,000 mm 0,0 UV-I 0 W/m 9,7 km/h 100 %
27.02.2020 07:05 2,4 C 82 % 1007,3 hPa 0,0 l/m 6,4 km/h SW 225 0 min 0,000 mm 0,0 UV-I 0 W/m 12,9 km/h 100 %
27.02.2020 07:00 2,3 C 83 % 1007,3 hPa 0,0 l/m 6,4 km/h SW 225 0 min 0,000 mm 0,0 UV-I 0 W/m 14,5 km/h 100 %
27.02.2020 06:55 2,2 C 83 % 1007,4 hPa 0,0 l/m 3,2 km/h S-SW 202 0 min 0,000 mm 0,0 UV-I 0 W/m 14,5 km/h 100 %
27.02.2020 06:50 2,2 C 83 % 1007,5 hPa 0,0 l/m 3,2 km/h SW 225 0 min 0,000 mm 0,0 UV-I 0 W/m 9,7 km/h 98 %
27.02.2020 06:45 2,2 C 83 % 1007,5 hPa 0,0 l/m 3,2 km/h S-SW 202 0 min 0,000 mm 0,0 UV-I 0 W/m 11,3 km/h 99 %
27.02.2020 06:40 2,3 C 82 % 1007,6 hPa 0,0 l/m 1,6 km/h S-SW 202 0 min 0,000 mm 0,0 UV-I 0 W/m 8,0 km/h 100 %
27.02.2020 06:35 2,3 C 82 % 1007,6 hPa 0,0 l/m 4,8 km/h SW 225 0 min 0,000 mm 0,0 UV-I 0 W/m 14,5 km/h 100 %
27.02.2020 06:30 2,3 C 82 % 1007,6 hPa 0,0 l/m 3,2 km/h SW 225 0 min 0,000 mm 0,0 UV-I 0 W/m 9,7 km/h 100 %
27.02.2020 06:25 2,3 C 82 % 1007,6 hPa 0,0 l/m 4,8 km/h SW 225 0 min 0,000 mm 0,0 UV-I 0 W/m 11,3 km/h 100 %
27.02.2020 06:20 2,3 C 82 % 1007,7 hPa 0,0 l/m 6,4 km/h SW 225 0 min 0,000 mm 0,0 UV-I 0 W/m 11,3 km/h 100 %
27.02.2020 06:15 2,3 C 82 % 1007,8 hPa 0,0 l/m 6,4 km/h SW 225 0 min 0,000 mm 0,0 UV-I 0 W/m 11,3 km/h 82 %
27.02.2020 06:10 2,3 C 82 % 1007,8 hPa 0,0 l/m 6,4 km/h SW 225 0 min 0,000 mm 0,0 UV-I 0 W/m 11,3 km/h 96 %
27.02.2020 06:05 2,3 C 82 % 1007,8 hPa 0,0 l/m 4,8 km/h SW 225 0 min 0,000 mm 0,0 UV-I 0 W/m 9,7 km/h 100 %
27.02.2020 06:00 2,3 C 82 % 1007,8 hPa 0,0 l/m 1,6 km/h SW 225 0 min 0,000 mm 0,0 UV-I 0 W/m 8,0 km/h 98 %
27.02.2020 05:55 2,4 C 82 % 1007,8 hPa 0,0 l/m 8,0 km/h SW 225 0 min 0,000 mm 0,0 UV-I 0 W/m 14,5 km/h 100 %
27.02.2020 05:50 2,3 C 81 % 1007,9 hPa 0,0 l/m 8,0 km/h SW 225 0 min 0,000 mm 0,0 UV-I 0 W/m 14,5 km/h 100 %
27.02.2020 05:45 2,3 C 82 % 1007,9 hPa 0,0 l/m 6,4 km/h SW 225 0 min 0,000 mm 0,0 UV-I 0 W/m 16,1 km/h 100 %
27.02.2020 05:40 2,2 C 82 % 1007,9 hPa 0,0 l/m 6,4 km/h SW 225 0 min 0,000 mm 0,0 UV-I 0 W/m 12,9 km/h 100 %
27.02.2020 05:35 2,2 C 82 % 1007,8 hPa 0,0 l/m 6,4 km/h SW 225 0 min 0,000 mm 0,0 UV-I 0 W/m 12,9 km/h 100 %
27.02.2020 05:30 2,2 C 82 % 1007,9 hPa 0,0 l/m 8,0 km/h SW 225 0 min 0,000 mm 0,0 UV-I 0 W/m 14,5 km/h 100 %
27.02.2020 05:25 2,1 C 82 % 1007,9 hPa 0,0 l/m 3,2 km/h SW 225 0 min 0,000 mm 0,0 UV-I 0 W/m 11,3 km/h 100 %
27.02.2020 05:20 2,1 C 82 % 1007,8 hPa 0,0 l/m 4,8 km/h SW 225 0 min 0,000 mm 0,0 UV-I 0 W/m 12,9 km/h 100 %
27.02.2020 05:15 2,0 C 82 % 1007,9 hPa 0,0 l/m 6,4 km/h S-SW 202 0 min 0,000 mm 0,0 UV-I 0 W/m 14,5 km/h 100 %
27.02.2020 05:10 1,9 C 82 % 1007,9 hPa 0,0 l/m 4,8 km/h SW 225 0 min 0,000 mm 0,0 UV-I 0 W/m 11,3 km/h 96 %
27.02.2020 05:05 1,9 C 82 % 1007,9 hPa 0,0 l/m 8,0 km/h SW 225 0 min 0,000 mm 0,0 UV-I 0 W/m 14,5 km/h 100 %
27.02.2020 05:00 1,8 C 82 % 1007,9 hPa 0,0 l/m 4,8 km/h SW 225 0 min 0,000 mm 0,0 UV-I 0 W/m 11,3 km/h 99 %
27.02.2020 04:55 1,8 C 83 % 1007,9 hPa 0,0 l/m 4,8 km/h SW 225 0 min 0,000 mm 0,0 UV-I 0 W/m 11,3 km/h 100 %
27.02.2020 04:50 1,8 C 83 % 1007,9 hPa 0,0 l/m 6,4 km/h SW 225 0 min 0,000 mm 0,0 UV-I 0 W/m 11,3 km/h 100 %
27.02.2020 04:45 1,7 C 83 % 1007,8 hPa 0,0 l/m 6,4 km/h SW 225 0 min 0,000 mm 0,0 UV-I 0 W/m 14,5 km/h 98 %
27.02.2020 04:40 1,7 C 83 % 1007,9 hPa 0,0 l/m 4,8 km/h SW 225 0 min 0,000 mm 0,0 UV-I 0 W/m 16,1 km/h 100 %
27.02.2020 04:35 1,6 C 83 % 1007,9 hPa 0,0 l/m 3,2 km/h SW 225 0 min 0,000 mm 0,0 UV-I 0 W/m 11,3 km/h 100 %
27.02.2020 04:30 1,7 C 83 % 1007,8 hPa 0,0 l/m 6,4 km/h SW 225 0 min 0,000 mm 0,0 UV-I 0 W/m 11,3 km/h 100 %
27.02.2020 04:25 1,6 C 83 % 1007,9 hPa 0,0 l/m 4,8 km/h SW 225 0 min 0,000 mm 0,0 UV-I 0 W/m 11,3 km/h 99 %
27.02.2020 04:20 1,6 C 83 % 1007,9 hPa 0,0 l/m 4,8 km/h SW 225 0 min 0,000 mm 0,0 UV-I 0 W/m 8,0 km/h 99 %
27.02.2020 04:15 1,6 C 82 % 1008,0 hPa 0,0 l/m 4,8 km/h SW 225 0 min 0,000 mm 0,0 UV-I 0 W/m 9,7 km/h 100 %
27.02.2020 04:10 1,7 C 82 % 1007,9 hPa 0,0 l/m 6,4 km/h SW 225 0 min 0,000 mm 0,0 UV-I 0 W/m 12,9 km/h 98 %
27.02.2020 04:05 1,8 C 82 % 1007,9 hPa 0,0 l/m 8,0 km/h SW 225 0 min 0,000 mm 0,0 UV-I 0 W/m 12,9 km/h 100 %
27.02.2020 04:00 1,8 C 82 % 1007,9 hPa 0,0 l/m 8,0 km/h SW 225 0 min 0,000 mm 0,0 UV-I 0 W/m 16,1 km/h 99 %
27.02.2020 03:55 1,7 C 82 % 1007,9 hPa 0,0 l/m 9,7 km/h W-SW 247 0 min 0,000 mm 0,0 UV-I 0 W/m 19,3 km/h 100 %
27.02.2020 03:50 1,7 C 82 % 1007,9 hPa 0,0 l/m 4,8 km/h W-SW 247 0 min 0,000 mm 0,0 UV-I 0 W/m 11,3 km/h 100 %
27.02.2020 03:45 1,7 C 82 % 1007,9 hPa 0,0 l/m 8,0 km/h SW 225 0 min 0,000 mm 0,0 UV-I 0 W/m 14,5 km/h 100 %
27.02.2020 03:40 1,7 C 82 % 1007,9 hPa 0,0 l/m 8,0 km/h SW 225 0 min 0,000 mm 0,0 UV-I 0 W/m 14,5 km/h 100 %
27.02.2020 03:35 1,7 C 83 % 1007,9 hPa 0,0 l/m 12,9 km/h W-SW 247 0 min 0,000 mm 0,0 UV-I 0 W/m 19,3 km/h 100 %
27.02.2020 03:30 1,6 C 83 % 1008,0 hPa 0,0 l/m 8,0 km/h SW 225 0 min 0,000 mm 0,0 UV-I 0 W/m 17,7 km/h 100 %
27.02.2020 03:25 1,5 C 83 % 1008,0 hPa 0,0 l/m 9,7 km/h W-SW 247 0 min 0,000 mm 0,0 UV-I 0 W/m 17,7 km/h 100 %
27.02.2020 03:20 1,5 C 83 % 1007,9 hPa 0,0 l/m 6,4 km/h SW 225 0 min 0,000 mm 0,0 UV-I 0 W/m 12,9 km/h 100 %
27.02.2020 03:15 1,5 C 83 % 1007,9 hPa 0,0 l/m 4,8 km/h S-SW 202 0 min 0,000 mm 0,0 UV-I 0 W/m 11,3 km/h 100 %
27.02.2020 03:10 1,5 C 83 % 1007,9 hPa 0,0 l/m 4,8 km/h SW 225 0 min 0,000 mm 0,0 UV-I 0 W/m 12,9 km/h 99 %
27.02.2020 03:05 1,6 C 83 % 1008,0 hPa 0,0 l/m 3,2 km/h SW 225 0 min 0,000 mm 0,0 UV-I 0 W/m 16,1 km/h 96 %
27.02.2020 03:00 1,6 C 83 % 1008,1 hPa 0,0 l/m 4,8 km/h SW 225 0 min 0,000 mm 0,0 UV-I 0 W/m 14,5 km/h 97 %
27.02.2020 02:55 1,6 C 84 % 1008,0 hPa 0,0 l/m 3,2 km/h SW 225 0 min 0,000 mm 0,0 UV-I 0 W/m 12,9 km/h 100 %
27.02.2020 02:50 1,6 C 84 % 1008,1 hPa 0,0 l/m 4,8 km/h SW 225 0 min 0,000 mm 0,0 UV-I 0 W/m 11,3 km/h 100 %
27.02.2020 02:45 1,6 C 84 % 1008,0 hPa 0,0 l/m 3,2 km/h SW 225 0 min 0,000 mm 0,0 UV-I 0 W/m 12,9 km/h 100 %
27.02.2020 02:40 1,5 C 84 % 1008,0 hPa 0,0 l/m 3,2 km/h W-SW 247 0 min 0,000 mm 0,0 UV-I 0 W/m 9,7 km/h 100 %
27.02.2020 02:35 1,6 C 85 % 1008,0 hPa 0,0 l/m 0,0 km/h SW 225 0 min 0,000 mm 0,0 UV-I 0 W/m 6,4 km/h 100 %
27.02.2020 02:30 1,6 C 84 % 1008,0 hPa 0,0 l/m 1,6 km/h SW 225 0 min 0,000 mm 0,0 UV-I 0 W/m 9,7 km/h 100 %
27.02.2020 02:25 1,7 C 84 % 1008,0 hPa 0,0 l/m 3,2 km/h W-SW 247 0 min 0,000 mm 0,0 UV-I 0 W/m 11,3 km/h 100 %
27.02.2020 02:20 1,7 C 84 % 1008,0 hPa 0,0 l/m 6,4 km/h W-SW 247 0 min 0,000 mm 0,0 UV-I 0 W/m 11,3 km/h 100 %
27.02.2020 02:15 1,8 C 83 % 1008,1 hPa 0,2 l/m 6,4 km/h W-SW 247 0 min 0,000 mm 0,0 UV-I 0 W/m 12,9 km/h 100 %
27.02.2020 02:10 2,1 C 83 % 1008,1 hPa 0,0 l/m 6,4 km/h W-SW 247 0 min 0,000 mm 0,0 UV-I 0 W/m 12,9 km/h 100 %
27.02.2020 02:05 2,2 C 82 % 1008,1 hPa 0,0 l/m 9,7 km/h W-SW 247 0 min 0,000 mm 0,0 UV-I 0 W/m 16,1 km/h 99 %
27.02.2020 02:00 2,2 C 82 % 1008,1 hPa 0,0 l/m 8,0 km/h W-SW 247 0 min 0,025 mm 0,0 UV-I 0 W/m 16,1 km/h 100 %
27.02.2020 01:55 2,2 C 82 % 1008,0 hPa 0,0 l/m 9,7 km/h W-SW 247 0 min 0,000 mm 0,0 UV-I 0 W/m 17,7 km/h 100 %
27.02.2020 01:50 2,2 C 82 % 1008,0 hPa 0,0 l/m 9,7 km/h SW 225 0 min 0,000 mm 0,0 UV-I 0 W/m 17,7 km/h 100 %
27.02.2020 01:45 2,3 C 82 % 1008,0 hPa 0,0 l/m 9,7 km/h W-SW 247 0 min 0,000 mm 0,0 UV-I 0 W/m 17,7 km/h 100 %
27.02.2020 01:40 2,3 C 82 % 1008,0 hPa 0,0 l/m 11,3 km/h SW 225 0 min 0,000 mm 0,0 UV-I 0 W/m 17,7 km/h 100 %
27.02.2020 01:35 2,4 C 81 % 1008,0 hPa 0,0 l/m 8,0 km/h SW 225 0 min 0,000 mm 0,0 UV-I 0 W/m 14,5 km/h 100 %
27.02.2020 01:30 2,4 C 81 % 1008,0 hPa 0,0 l/m 8,0 km/h SW 225 0 min 0,000 mm 0,0 UV-I 0 W/m 16,1 km/h 100 %
27.02.2020 01:25 2,4 C 81 % 1007,9 hPa 0,0 l/m 9,7 km/h W-SW 247 0 min 0,000 mm 0,0 UV-I 0 W/m 17,7 km/h 100 %
27.02.2020 01:20 2,4 C 81 % 1007,8 hPa 0,0 l/m 4,8 km/h W-SW 247 0 min 0,000 mm 0,0 UV-I 0 W/m 12,9 km/h 100 %
27.02.2020 01:15 2,4 C 81 % 1007,7 hPa 0,0 l/m 9,7 km/h W-SW 247 0 min 0,000 mm 0,0 UV-I 0 W/m 19,3 km/h 100 %
27.02.2020 01:10 2,4 C 81 % 1007,8 hPa 0,0 l/m 11,3 km/h W-SW 247 0 min 0,000 mm 0,0 UV-I 0 W/m 19,3 km/h 100 %
27.02.2020 01:05 2,4 C 81 % 1007,7 hPa 0,0 l/m 9,7 km/h SW 225 0 min 0,000 mm 0,0 UV-I 0 W/m 19,3 km/h 96 %
27.02.2020 01:00 2,3 C 81 % 1007,7 hPa 0,0 l/m 8,0 km/h SW 225 0 min 0,000 mm 0,0 UV-I 0 W/m 20,9 km/h 100 %
27.02.2020 00:55 2,3 C 81 % 1007,6 hPa 0,0 l/m 6,4 km/h SW 225 0 min 0,000 mm 0,0 UV-I 0 W/m 9,7 km/h 100 %
27.02.2020 00:50 2,3 C 81 % 1007,6 hPa 0,0 l/m 6,4 km/h SW 225 0 min 0,000 mm 0,0 UV-I 0 W/m 14,5 km/h 100 %
27.02.2020 00:45 2,3 C 82 % 1007,7 hPa 0,0 l/m 8,0 km/h W-SW 247 0 min 0,000 mm 0,0 UV-I 0 W/m 14,5 km/h 100 %
27.02.2020 00:40 2,3 C 82 % 1007,6 hPa 0,0 l/m 6,4 km/h SW 225 0 min 0,000 mm 0,0 UV-I 0 W/m 12,9 km/h 100 %
27.02.2020 00:35 2,2 C 82 % 1007,5 hPa 0,0 l/m 6,4 km/h SW 225 0 min 0,000 mm 0,0 UV-I 0 W/m 16,1 km/h 100 %
27.02.2020 00:30 2,2 C 82 % 1007,5 hPa 0,0 l/m 6,4 km/h SW 225 0 min 0,000 mm 0,0 UV-I 0 W/m 12,9 km/h 100 %
27.02.2020 00:25 2,1 C 83 % 1007,5 hPa 0,0 l/m 6,4 km/h SW 225 0 min 0,000 mm 0,0 UV-I 0 W/m 14,5 km/h 100 %
27.02.2020 00:20 2,2 C 83 % 1007,3 hPa 0,0 l/m 6,4 km/h SW 225 0 min 0,000 mm 0,0 UV-I 0 W/m 12,9 km/h 100 %
27.02.2020 00:15 2,2 C 82 % 1007,4 hPa 0,0 l/m 6,4 km/h SW 225 0 min 0,000 mm 0,0 UV-I 0 W/m 16,1 km/h 99 %
27.02.2020 00:10 2,2 C 82 % 1007,4 hPa 0,0 l/m 6,4 km/h SW 225 0 min 0,000 mm 0,0 UV-I 0 W/m 12,9 km/h 100 %
27.02.2020 00:05 2,3 C 82 % 1007,4 hPa 0,0 l/m 9,7 km/h SW 225 0 min 0,000 mm 0,0 UV-I 0 W/m 17,7 km/h 98 %
27.02.2020 00:00 2,3 C 82 % 1007,4 hPa 0,0 l/m 9,7 km/h SW 225 0 min 0,025 mm 0,0 UV-I 0 W/m 16,1 km/h 96 %
_ Min-Zeit 02:35 13:55 14:05 - 02:35 - - - - - - 07:50 09:15
Minimum _ 1,5 C 70 % 999,0 hPa - 0,0 km/h - - - - - - 4,8 km/h 78 %
_ Max-Zeit 12:45 02:35 02:00 02:15 03:35 - - 09:35 12:00 11:20 11:25 14:00 00:10
Maximum _ 4,8 C 85 % 1008,1 hPa 0,2 l/m 12,9 km/h
W-SW
- - 5 min 0,102 mm 0,9 UV-I 285 W/m 24,1 km/h
S
100 %
Durchschnitt _ 2,8 C 80 % 1006,2 hPa #0,2 l/m 6,4 km/h SW - #20 min. #0,457 mm 0,7 UV-I 136 W/m 13,9 km/h 99 %